createdAt,value
2022-09-17T00:01:07.402Z,11.90
2022-09-17T00:03:35.116Z,11.90
2022-09-17T00:06:07.126Z,11.90
2022-09-17T00:08:35.185Z,11.90
2022-09-17T00:11:09.044Z,11.80
2022-09-17T00:13:36.146Z,11.80
2022-09-17T00:16:03.323Z,11.90
2022-09-17T00:18:30.377Z,11.90
2022-09-17T00:20:57.139Z,11.90
2022-09-17T00:23:23.982Z,11.90
2022-09-17T00:25:50.709Z,11.90
2022-09-17T00:28:17.426Z,11.90
2022-09-17T00:30:46.076Z,11.90
2022-09-17T00:33:15.223Z,11.80
2022-09-17T00:35:43.010Z,11.80
2022-09-17T00:38:10.085Z,11.70
2022-09-17T00:40:37.397Z,11.60
2022-09-17T00:43:05.098Z,11.60
2022-09-17T00:45:32.447Z,11.60
2022-09-17T00:48:05.477Z,11.60
2022-09-17T00:50:34.842Z,11.60
2022-09-17T00:53:06.929Z,11.60
2022-09-17T00:56:01.913Z,11.50
2022-09-17T00:58:29.602Z,11.60
2022-09-17T01:00:56.384Z,11.60
2022-09-17T01:03:23.165Z,11.60
2022-09-17T01:06:14.454Z,11.60
2022-09-17T01:09:20.931Z,11.60
2022-09-17T01:11:59.594Z,11.60
2022-09-17T01:14:35.178Z,11.50
2022-09-17T01:17:15.629Z,11.50
2022-09-17T01:20:04.062Z,11.50
2022-09-17T01:23:07.740Z,11.50
2022-09-17T01:25:37.187Z,11.40
2022-09-17T01:28:37.824Z,11.40
2022-09-17T01:31:20.862Z,11.40
2022-09-17T01:34:02.963Z,11.40
2022-09-17T01:36:57.905Z,11.40
2022-09-17T01:39:33.470Z,11.30
2022-09-17T01:42:20.643Z,11.30
2022-09-17T01:44:47.293Z,11.40
2022-09-17T01:47:23.338Z,11.30
2022-09-17T01:49:57.263Z,11.30
2022-09-17T01:52:26.690Z,11.40
2022-09-17T01:54:58.107Z,11.40
2022-09-17T01:57:57.279Z,11.40
2022-09-17T02:00:25.048Z,11.50
2022-09-17T02:03:09.906Z,11.50
2022-09-17T02:05:41.889Z,11.50
2022-09-17T02:08:16.679Z,11.50
2022-09-17T02:10:47.902Z,11.50
2022-09-17T02:13:31.702Z,11.50
2022-09-17T02:16:06.707Z,11.60
2022-09-17T02:19:01.004Z,11.60
2022-09-17T02:21:38.140Z,11.60
2022-09-17T02:24:18.853Z,11.60
2022-09-17T02:26:53.870Z,11.60
2022-09-17T02:29:35.985Z,11.60
2022-09-17T02:32:03.503Z,11.50
2022-09-17T02:34:30.858Z,11.50
2022-09-17T02:37:01.352Z,11.50
2022-09-17T02:39:28.721Z,11.50
2022-09-17T02:42:17.349Z,11.50
2022-09-17T02:45:00.010Z,11.50
2022-09-17T02:47:48.694Z,11.50
2022-09-17T02:50:42.855Z,11.60
2022-09-17T02:53:29.194Z,11.50
2022-09-17T02:56:26.590Z,11.50
2022-09-17T02:59:16.052Z,11.40
2022-09-17T03:01:49.176Z,11.40
2022-09-17T03:04:18.798Z,11.30
2022-09-17T03:06:47.226Z,11.30
2022-09-17T03:09:15.577Z,11.30
2022-09-17T03:11:42.804Z,11.30
2022-09-17T03:14:09.532Z,11.20
2022-09-17T03:16:36.317Z,11.20
2022-09-17T03:19:03.903Z,11.20
2022-09-17T03:21:31.315Z,11.20
2022-09-17T03:24:00.317Z,11.10
2022-09-17T03:26:27.695Z,11.00
2022-09-17T03:28:54.411Z,10.90
2022-09-17T03:31:21.166Z,10.90
2022-09-17T03:33:48.503Z,10.80
2022-09-17T03:36:15.169Z,10.70
2022-09-17T03:38:41.917Z,10.70
2022-09-17T03:41:08.627Z,10.60
2022-09-17T03:43:35.619Z,10.60
2022-09-17T03:46:02.459Z,10.60
2022-09-17T03:48:30.255Z,10.60
2022-09-17T03:50:56.941Z,10.50
2022-09-17T03:53:23.893Z,10.40
2022-09-17T03:55:51.008Z,10.40
2022-09-17T03:58:17.716Z,10.40
2022-09-17T04:00:44.962Z,10.40
2022-09-17T04:03:11.689Z,10.40
2022-09-17T04:05:38.496Z,10.40
2022-09-17T04:08:05.582Z,10.40
2022-09-17T04:10:32.262Z,10.30
2022-09-17T04:12:58.928Z,10.40
2022-09-17T04:15:25.717Z,10.30
2022-09-17T04:17:57.710Z,10.40
2022-09-17T04:20:25.488Z,10.40
2022-09-17T04:22:52.615Z,10.30
2022-09-17T04:25:19.612Z,10.30
2022-09-17T04:27:47.642Z,10.30
2022-09-17T04:30:14.877Z,10.30
2022-09-17T04:32:43.167Z,10.20
2022-09-17T04:35:09.952Z,10.20
2022-09-17T04:37:37.095Z,10.20
2022-09-17T04:40:07.973Z,10.30
2022-09-17T04:42:35.031Z,10.20
2022-09-17T04:45:01.844Z,10.20
2022-09-17T04:47:28.532Z,10.20
2022-09-17T04:49:55.216Z,10.10
2022-09-17T04:52:21.926Z,10.10
2022-09-17T04:54:48.634Z,10.10
2022-09-17T04:57:15.325Z,10.20
2022-09-17T04:59:42.059Z,10.30
2022-09-17T05:02:08.831Z,10.40
2022-09-17T05:04:35.570Z,10.40
2022-09-17T05:07:02.830Z,10.30
2022-09-17T05:09:29.518Z,10.40
2022-09-17T05:11:56.176Z,10.40
2022-09-17T05:14:22.979Z,10.40
2022-09-17T05:16:49.657Z,10.50
2022-09-17T05:19:16.422Z,10.50
2022-09-17T05:21:43.109Z,10.50
2022-09-17T05:24:09.880Z,10.60
2022-09-17T05:26:36.605Z,10.60
2022-09-17T05:29:04.744Z,10.60
2022-09-17T05:31:31.558Z,10.60
2022-09-17T05:33:59.120Z,10.60
2022-09-17T05:36:25.814Z,10.60
2022-09-17T05:38:52.524Z,10.70
2022-09-17T05:41:19.207Z,10.80
2022-09-17T05:43:46.074Z,10.70
2022-09-17T05:46:12.895Z,10.70
2022-09-17T05:48:39.630Z,10.70
2022-09-17T05:51:06.328Z,10.80
2022-09-17T05:53:33.149Z,10.90
2022-09-17T05:55:59.890Z,10.90
2022-09-17T05:58:27.230Z,11.10
2022-09-17T06:00:54.020Z,11.10
2022-09-17T06:03:22.681Z,11.20
2022-09-17T06:05:58.313Z,11.20
2022-09-17T06:08:26.945Z,11.20
2022-09-17T06:10:54.050Z,11.20
2022-09-17T06:13:21.313Z,11.20
2022-09-17T06:15:53.653Z,11.30
2022-09-17T06:18:20.835Z,11.20
2022-09-17T06:21:13.845Z,11.20
2022-09-17T06:23:43.397Z,11.20
2022-09-17T06:26:10.193Z,11.20
2022-09-17T06:28:41.543Z,11.20
2022-09-17T06:31:09.952Z,11.20
2022-09-17T06:33:36.703Z,11.30
2022-09-17T06:36:13.315Z,11.30
2022-09-17T06:38:41.388Z,11.20
2022-09-17T06:41:08.180Z,11.30
2022-09-17T06:43:35.022Z,11.30
2022-09-17T06:46:06.010Z,11.40
2022-09-17T06:48:35.006Z,11.40
2022-09-17T06:51:03.391Z,11.30
2022-09-17T06:53:30.700Z,11.20
2022-09-17T06:56:02.352Z,11.30
2022-09-17T06:58:32.504Z,11.30
2022-09-17T07:01:03.790Z,11.40
2022-09-17T07:03:31.849Z,11.50
2022-09-17T07:05:59.035Z,11.60
2022-09-17T07:08:28.966Z,11.50
2022-09-17T07:10:57.053Z,11.60
2022-09-17T07:13:24.679Z,11.70
2022-09-17T07:15:59.969Z,11.70
2022-09-17T07:18:27.033Z,11.70
2022-09-17T07:21:01.411Z,11.80
2022-09-17T07:23:31.496Z,11.90
2022-09-17T07:26:12.699Z,11.90
2022-09-17T07:28:40.526Z,12.00
2022-09-17T07:31:12.465Z,12.00
2022-09-17T07:33:42.414Z,12.10
2022-09-17T07:36:12.269Z,12.20
2022-09-17T07:38:39.662Z,12.10
2022-09-17T07:41:11.734Z,12.20
2022-09-17T07:43:38.739Z,12.30
2022-09-17T07:46:07.157Z,12.30
2022-09-17T07:48:34.616Z,12.50
2022-09-17T07:51:01.409Z,12.80
2022-09-17T07:53:28.267Z,13.00
2022-09-17T07:55:57.853Z,13.20
2022-09-17T07:58:32.535Z,13.30
2022-09-17T08:01:07.153Z,13.30
2022-09-17T08:03:34.907Z,13.40
2022-09-17T08:06:12.099Z,13.60
2022-09-17T08:08:40.171Z,13.60
2022-09-17T08:11:11.725Z,13.80
2022-09-17T08:13:39.186Z,14.00
2022-09-17T08:16:08.833Z,14.10
2022-09-17T08:18:36.149Z,14.10
2022-09-17T08:21:05.410Z,14.10
2022-09-17T08:23:35.134Z,14.30
2022-09-17T08:26:02.006Z,14.40
2022-09-17T08:28:30.752Z,14.60
2022-09-17T08:31:02.790Z,14.80
2022-09-17T08:33:37.887Z,14.90
2022-09-17T08:36:05.764Z,15.20
2022-09-17T08:38:37.911Z,15.20
2022-09-17T08:41:08.158Z,15.10
2022-09-17T08:43:40.762Z,15.00
2022-09-17T08:46:10.788Z,15.10
2022-09-17T08:49:15.414Z,15.20
2022-09-17T08:51:53.216Z,15.40
2022-09-17T08:54:39.885Z,15.70
2022-09-17T08:57:15.411Z,15.40
2022-09-17T09:00:00.394Z,15.30
2022-09-17T09:02:49.360Z,15.10
2022-09-17T09:05:22.808Z,15.20
2022-09-17T09:07:57.953Z,15.00
2022-09-17T09:10:29.432Z,14.70
2022-09-17T09:13:00.226Z,14.30
2022-09-17T09:15:40.994Z,13.80
2022-09-17T09:18:18.805Z,13.40
2022-09-17T09:20:55.685Z,13.40
2022-09-17T09:23:34.338Z,13.30
2022-09-17T09:26:12.227Z,13.30
2022-09-17T09:28:43.179Z,13.30
2022-09-17T09:31:22.168Z,13.20
2022-09-17T09:33:50.953Z,13.20
2022-09-17T09:36:21.888Z,13.10
2022-09-17T09:39:01.731Z,13.10
2022-09-17T09:41:48.987Z,13.30
2022-09-17T09:44:17.269Z,13.30
2022-09-17T09:47:08.682Z,13.10
2022-09-17T09:50:01.008Z,13.20
2022-09-17T09:52:46.611Z,13.00
2022-09-17T09:55:32.120Z,13.10
2022-09-17T09:58:25.185Z,13.00
2022-09-17T10:00:52.208Z,12.90
2022-09-17T10:03:22.820Z,12.80
2022-09-17T10:06:10.655Z,12.70
2022-09-17T10:08:40.087Z,12.80
2022-09-17T10:11:26.985Z,12.70
2022-09-17T10:14:14.021Z,12.70
2022-09-17T10:16:40.738Z,12.70
2022-09-17T10:19:07.628Z,12.60
2022-09-17T10:21:39.728Z,12.80
2022-09-17T10:24:25.616Z,12.80
2022-09-17T10:27:00.692Z,12.90
2022-09-17T10:29:27.680Z,12.90
2022-09-17T10:31:56.968Z,12.80
2022-09-17T10:34:26.918Z,12.80
2022-09-17T10:36:56.086Z,12.80
2022-09-17T10:39:44.514Z,12.80
2022-09-17T10:42:18.607Z,12.80
2022-09-17T10:44:57.299Z,12.90
2022-09-17T10:47:37.465Z,12.90
2022-09-17T10:50:30.406Z,12.80
2022-09-17T10:53:15.633Z,12.90
2022-09-17T11:02:35.365Z,13.20
2022-09-17T11:05:23.776Z,13.30
2022-09-17T11:07:50.519Z,13.40
2022-09-17T11:10:29.120Z,13.60
2022-09-17T11:13:25.161Z,13.60
2022-09-17T11:16:14.900Z,13.70
2022-09-17T11:18:47.983Z,13.80
2022-09-17T11:21:54.702Z,13.80
2022-09-17T11:24:24.438Z,13.80
2022-09-17T11:27:06.277Z,13.70
2022-09-17T11:29:38.975Z,13.70
2022-09-17T11:32:20.523Z,13.70
2022-09-17T11:34:59.516Z,13.90
2022-09-17T11:37:32.995Z,14.00
2022-09-17T11:40:17.725Z,14.00
2022-09-17T11:43:24.650Z,14.10
2022-09-17T11:45:56.976Z,14.20
2022-09-17T11:48:33.158Z,14.20
2022-09-17T11:51:07.013Z,14.20
2022-09-17T11:54:03.211Z,14.40
2022-09-17T11:56:45.723Z,14.20
2022-09-17T11:59:32.445Z,14.00
2022-09-17T12:02:04.669Z,13.90
2022-09-17T12:04:56.943Z,14.00
2022-09-17T12:07:45.418Z,14.00
2022-09-17T12:10:41.590Z,14.00
2022-09-17T12:13:32.304Z,14.10
2022-09-17T12:16:22.829Z,14.30
2022-09-17T12:18:58.628Z,14.20
2022-09-17T12:21:30.795Z,14.10
2022-09-17T12:24:04.907Z,14.10
2022-09-17T12:27:04.138Z,14.10
2022-09-17T12:29:37.035Z,14.00
2022-09-17T12:32:28.582Z,14.00
2022-09-17T12:35:01.430Z,14.10
2022-09-17T12:37:45.382Z,14.00
2022-09-17T12:40:38.843Z,14.10
2022-09-17T12:43:37.344Z,14.10
2022-09-17T12:46:13.281Z,14.10
2022-09-17T12:48:52.033Z,14.00
2022-09-17T12:51:41.310Z,13.80
2022-09-17T12:54:26.753Z,13.70
2022-09-17T12:57:12.499Z,13.50
2022-09-17T12:59:50.825Z,13.30
2022-09-17T13:02:32.550Z,13.20
2022-09-17T13:05:05.657Z,13.10
2022-09-17T13:07:58.814Z,13.10
2022-09-17T13:10:41.291Z,13.10
2022-09-17T13:13:14.015Z,13.00
2022-09-17T13:15:53.039Z,13.10
2022-09-17T13:18:59.329Z,13.10
2022-09-17T13:21:40.804Z,13.10
2022-09-17T13:24:30.370Z,13.30
2022-09-17T13:27:00.078Z,13.40
2022-09-17T13:29:45.303Z,13.40
2022-09-17T13:32:37.265Z,13.50
2022-09-17T13:35:06.827Z,13.60
2022-09-17T13:37:37.552Z,13.70
2022-09-17T13:40:07.273Z,13.70
2022-09-17T13:42:48.262Z,13.90
2022-09-17T13:45:17.463Z,14.00
2022-09-17T13:48:18.310Z,14.10
2022-09-17T13:50:45.251Z,14.10
2022-09-17T13:53:14.683Z,14.00
2022-09-17T13:55:48.881Z,14.00
2022-09-17T13:58:18.852Z,14.00
2022-09-17T14:00:56.210Z,13.90
2022-09-17T14:03:28.748Z,13.90
2022-09-17T14:06:18.027Z,13.80
2022-09-17T14:08:44.824Z,13.80
2022-09-17T14:11:23.872Z,13.80
2022-09-17T14:13:58.028Z,13.70
2022-09-17T14:16:35.893Z,13.60
2022-09-17T14:19:33.737Z,13.60
2022-09-17T14:22:17.558Z,13.40
2022-09-17T14:24:44.350Z,13.40
2022-09-17T14:27:33.531Z,13.40
2022-09-17T14:30:15.505Z,13.40
2022-09-17T14:32:59.675Z,13.50
2022-09-17T14:35:37.529Z,13.40
2022-09-17T14:38:15.322Z,13.40
2022-09-17T14:40:47.863Z,13.50
2022-09-17T14:43:41.777Z,13.60
2022-09-17T14:46:16.056Z,13.60
2022-09-17T14:48:43.166Z,13.60
2022-09-17T14:51:19.755Z,13.50
2022-09-17T14:53:49.464Z,13.40
2022-09-17T14:56:23.337Z,13.30
2022-09-17T14:58:53.675Z,13.20
2022-09-17T15:01:28.964Z,13.20
2022-09-17T15:04:13.981Z,13.20
2022-09-17T15:06:44.459Z,13.00
2022-09-17T15:09:22.703Z,13.00
2022-09-17T15:11:51.604Z,13.00
2022-09-17T15:14:22.335Z,12.80
2022-09-17T15:16:51.555Z,12.70
2022-09-17T15:19:28.577Z,12.60
2022-09-17T15:21:58.033Z,12.40
2022-09-17T15:24:43.835Z,12.10
2022-09-17T15:27:18.487Z,11.90
2022-09-17T15:29:48.766Z,11.70
2022-09-17T15:32:15.552Z,11.60
2022-09-17T15:34:42.635Z,11.50
2022-09-17T15:37:17.528Z,11.60
2022-09-17T15:39:50.886Z,11.60
2022-09-17T15:42:30.669Z,11.60
2022-09-17T15:45:20.751Z,11.70
2022-09-17T15:47:53.639Z,11.70
2022-09-17T15:50:32.768Z,11.80
2022-09-17T15:53:12.718Z,11.70
2022-09-17T15:55:58.491Z,11.70
2022-09-17T15:58:36.703Z,11.70
2022-09-17T16:01:16.382Z,11.60
2022-09-17T16:03:46.260Z,11.50
2022-09-17T16:06:18.851Z,11.50
2022-09-17T16:08:47.517Z,11.50
2022-09-17T16:11:15.568Z,11.50
2022-09-17T16:13:42.654Z,11.50
2022-09-17T16:16:37.907Z,11.50
2022-09-17T16:19:06.839Z,11.50
2022-09-17T16:21:33.526Z,11.40
2022-09-17T16:24:00.275Z,11.40
2022-09-17T16:26:32.350Z,11.40
2022-09-17T16:29:05.567Z,11.40
2022-09-17T16:31:33.166Z,11.40
2022-09-17T16:34:00.708Z,11.40
2022-09-17T16:36:30.994Z,11.40
2022-09-17T16:38:58.224Z,11.40
2022-09-17T16:41:25.090Z,11.30
2022-09-17T16:43:51.782Z,11.20
2022-09-17T16:46:18.510Z,11.20
2022-09-17T16:48:49.290Z,11.20
2022-09-17T16:51:15.979Z,11.20
2022-09-17T16:53:42.866Z,11.20
2022-09-17T16:56:11.199Z,11.20
2022-09-17T16:58:38.641Z,11.20
2022-09-17T17:01:09.940Z,11.10
2022-09-17T17:03:36.892Z,11.10
2022-09-17T17:06:03.830Z,11.10
2022-09-17T17:08:34.179Z,11.00
2022-09-17T17:11:01.258Z,11.00
2022-09-17T17:13:28.244Z,11.00
2022-09-17T17:15:55.421Z,10.90
2022-09-17T17:18:22.857Z,10.90
2022-09-17T17:20:49.742Z,10.80
2022-09-17T17:23:17.033Z,10.70
2022-09-17T17:25:43.831Z,10.70
2022-09-17T17:28:10.993Z,10.70
2022-09-17T17:30:38.510Z,10.70
2022-09-17T17:33:05.721Z,10.70
2022-09-17T17:35:32.495Z,10.70
2022-09-17T17:37:59.262Z,10.60
2022-09-17T17:40:26.698Z,10.60
2022-09-17T17:42:53.725Z,10.50
2022-09-17T17:45:20.691Z,10.50
2022-09-17T17:47:47.826Z,10.50
2022-09-17T17:50:15.892Z,10.50
2022-09-17T17:52:47.932Z,10.50
2022-09-17T17:55:16.310Z,10.50
2022-09-17T17:57:43.184Z,10.50
2022-09-17T18:00:12.333Z,10.50
2022-09-17T18:02:40.288Z,10.40
2022-09-17T18:05:07.378Z,10.50
2022-09-17T18:07:34.194Z,10.50
2022-09-17T18:10:00.917Z,10.40
2022-09-17T18:12:27.678Z,10.40
2022-09-17T18:14:54.360Z,10.30
2022-09-17T18:17:21.228Z,10.40
2022-09-17T18:19:48.044Z,10.40
2022-09-17T18:22:14.890Z,10.40
2022-09-17T18:24:41.623Z,10.40
2022-09-17T18:27:08.425Z,10.40
2022-09-17T18:29:35.123Z,10.40
2022-09-17T18:32:02.632Z,10.40
2022-09-17T18:34:29.437Z,10.40
2022-09-17T18:36:56.157Z,10.50
2022-09-17T18:42:09.591Z,10.60
2022-09-17T18:44:36.371Z,10.60
2022-09-17T18:47:03.219Z,10.60
2022-09-17T18:49:29.917Z,10.60
2022-09-17T18:51:56.745Z,10.70
2022-09-17T18:54:23.473Z,10.60
2022-09-17T18:56:50.202Z,10.60
2022-09-17T18:59:17.090Z,10.60
2022-09-17T19:01:43.866Z,10.60
2022-09-17T19:04:11.297Z,10.50
2022-09-17T19:06:38.033Z,10.50
2022-09-17T19:09:05.782Z,10.50
2022-09-17T19:11:34.099Z,10.50
2022-09-17T19:14:01.477Z,10.60
2022-09-17T19:16:28.263Z,10.60
2022-09-17T19:18:55.099Z,10.60
2022-09-17T19:21:21.969Z,10.60
2022-09-17T19:23:51.015Z,10.60
2022-09-17T19:26:20.854Z,10.60
2022-09-17T19:28:48.133Z,10.60
2022-09-17T19:31:16.902Z,10.60
2022-09-17T19:33:44.402Z,10.50
2022-09-17T19:36:15.829Z,10.50
2022-09-17T19:38:43.374Z,10.40
2022-09-17T19:41:13.162Z,10.40
2022-09-17T19:43:40.515Z,10.30
2022-09-17T19:46:16.520Z,10.30
2022-09-17T19:48:44.649Z,10.20
2022-09-17T19:51:12.581Z,10.20
2022-09-17T19:53:39.729Z,10.20
2022-09-17T19:56:10.128Z,10.20
2022-09-17T19:58:36.864Z,10.20
2022-09-17T20:01:03.649Z,10.20
2022-09-17T20:03:31.004Z,10.20
2022-09-17T20:06:03.134Z,10.20
2022-09-17T20:08:30.668Z,10.30
2022-09-17T20:11:07.770Z,10.30
2022-09-17T20:13:35.040Z,10.30
2022-09-17T20:16:12.575Z,10.20
2022-09-17T20:18:39.813Z,10.20
2022-09-17T20:21:17.510Z,10.10
2022-09-17T20:23:44.956Z,10.10
2022-09-17T20:26:15.729Z,10.10
2022-09-17T20:28:43.283Z,10.10
2022-09-17T20:31:14.269Z,10.10
2022-09-17T20:33:41.411Z,10.10
2022-09-17T20:36:12.226Z,10.00
2022-09-17T20:41:27.653Z,10.00
2022-09-17T20:43:54.720Z,9.90
2022-09-17T20:46:28.365Z,9.90
2022-09-17T20:48:57.712Z,9.80
2022-09-17T20:51:27.286Z,9.70
2022-09-17T20:53:54.824Z,9.50
2022-09-17T20:56:27.490Z,9.40
2022-09-17T20:59:18.732Z,9.40
2022-09-17T21:01:49.370Z,9.30
2022-09-17T21:04:21.844Z,9.30
2022-09-17T21:06:52.534Z,9.10
2022-09-17T21:09:19.608Z,9.00
2022-09-17T21:11:48.141Z,8.90
2022-09-17T21:14:15.986Z,8.90
2022-09-17T21:16:43.238Z,8.90
2022-09-17T21:19:12.158Z,8.90
2022-09-17T21:21:38.850Z,8.90
2022-09-17T21:24:07.072Z,8.90
2022-09-17T21:26:34.606Z,8.90
2022-09-17T21:29:01.728Z,8.90
2022-09-17T21:31:32.757Z,8.90
2022-09-17T21:34:02.159Z,8.80
2022-09-17T21:36:31.641Z,8.80
2022-09-17T21:39:00.806Z,8.80
2022-09-17T21:41:27.881Z,8.80
2022-09-17T21:43:55.191Z,8.70
2022-09-17T21:46:25.324Z,8.80
2022-09-17T21:48:57.045Z,8.80
2022-09-17T21:51:37.125Z,8.80
2022-09-17T21:54:06.484Z,8.80
2022-09-17T21:56:34.124Z,8.80
2022-09-17T21:59:03.413Z,8.80
2022-09-17T22:01:35.426Z,8.90
2022-09-17T22:04:02.365Z,8.90
2022-09-17T22:06:31.488Z,8.90
2022-09-17T22:09:00.213Z,9.00
2022-09-17T22:11:29.558Z,9.00
2022-09-17T22:13:57.646Z,9.10
2022-09-17T22:16:26.991Z,9.00
2022-09-17T22:18:54.383Z,9.10
2022-09-17T22:21:23.449Z,9.00
2022-09-17T22:23:52.346Z,9.10
2022-09-17T22:26:21.669Z,9.00
2022-09-17T22:28:49.999Z,9.10
2022-09-17T22:31:17.571Z,9.20
2022-09-17T22:33:47.270Z,9.20
2022-09-17T22:36:17.741Z,9.10
2022-09-17T22:38:50.103Z,9.20
2022-09-17T22:41:19.343Z,9.20
2022-09-17T22:43:46.581Z,9.10
2022-09-17T22:46:14.181Z,9.10
2022-09-17T22:48:41.288Z,9.20
2022-09-17T22:51:08.518Z,9.20
2022-09-17T22:53:36.514Z,9.20
2022-09-17T22:56:05.629Z,9.10
2022-09-17T22:58:32.573Z,9.00
2022-09-17T23:01:11.291Z,8.90
2022-09-17T23:03:39.102Z,8.90
2022-09-17T23:06:09.147Z,8.90
2022-09-17T23:08:37.098Z,8.90
2022-09-17T23:11:05.972Z,8.90
2022-09-17T23:13:34.072Z,8.90
2022-09-17T23:16:07.148Z,8.90
2022-09-17T23:18:35.034Z,8.90
2022-09-17T23:21:04.849Z,9.00
2022-09-17T23:23:32.242Z,9.00
2022-09-17T23:26:06.570Z,9.00
2022-09-17T23:28:35.669Z,9.00
2022-09-17T23:31:16.550Z,9.00
2022-09-17T23:33:44.195Z,9.00
2022-09-17T23:36:13.570Z,9.00
2022-09-17T23:38:41.733Z,9.00
2022-09-17T23:41:32.688Z,8.90
2022-09-17T23:44:01.712Z,8.90
2022-09-17T23:46:31.330Z,8.90
2022-09-17T23:48:58.377Z,8.90
2022-09-17T23:51:27.664Z,8.90
2022-09-17T23:53:54.817Z,8.90
2022-09-17T23:56:24.001Z,8.90
2022-09-17T23:58:51.416Z,8.80
